Climatologie pour Saint-Brevin les Pins
Jour • Résumé pour juillet 12, 2017 Système :  Métrique    Anglais   Mixte
« - 1 jour
+ 1 jour »
Jour Semaine Mois Année Personnalisé
  Maximum : Minimum : Moyenne :
Température sous abri : 22.5 °C 16.3 °C 18.9 °C
Point de rosée : 18.1 °C 15.8 °C 16.9 °C
Humidité : 97 % 73 % 89 %
Vitesse du vent : 27.4 km/h 0.0 km/h 10.1 km/h
Rafale : 37.0 km/h - -
Direction :- - West
Pression : 1020.9 hPa 1011.4 hPa -
Précipitations : 1.5 mm    
Historical Graphs
 
 
Tableau de données pour juillet 12, 2017
Heure Tempé Pt rosée Pression Vent Vitesse Rafale Humidité Taux pluie (/hr) Soleil
00:00 18.3 °C 17.8 °C 1012.4 hPa SW 4.8 km/h 20.9 km/h 97 % 0.3 mm 0 W/m2
00:10 18.4 °C 17.9 °C 1012.4 hPa SSW 9.7 km/h 22.5 km/h 97 % 0.3 mm 0 W/m2
00:15 18.4 °C 17.9 °C 1012.4 hPa WSW 8.0 km/h 25.7 km/h 97 % 0.5 mm 0 W/m2
00:20 18.4 °C 17.9 °C 1012.4 hPa SW 1.6 km/h 25.7 km/h 97 % 0.5 mm 0 W/m2
00:25 18.4 °C 17.9 °C 1012.4 hPa WSW 11.3 km/h 27.4 km/h 97 % 0.5 mm 0 W/m2
00:30 18.4 °C 17.9 °C 1012.4 hPa SW 4.8 km/h 27.4 km/h 97 % 0.5 mm 0 W/m2
00:35 18.4 °C 17.9 °C 1012.1 hPa WSW 9.7 km/h 25.7 km/h 97 % 0.5 mm 0 W/m2
00:40 18.4 °C 17.9 °C 1012.4 hPa SW 9.7 km/h 25.7 km/h 97 % 0.5 mm 0 W/m2
00:45 18.4 °C 18.0 °C 1012.1 hPa West 19.3 km/h 25.7 km/h 97 % 0.5 mm 0 W/m2
00:50 18.4 °C 18.0 °C 1012.1 hPa SW 9.7 km/h 25.7 km/h 97 % 0.5 mm 0 W/m2
00:55 18.4 °C 18.0 °C 1012.1 hPa West 6.4 km/h 27.4 km/h 97 % 0.5 mm 0 W/m2
01:00 18.4 °C 18.0 °C 1012.1 hPa SW 6.4 km/h 27.4 km/h 97 % 0.5 mm 0 W/m2
01:05 18.5 °C 18.0 °C 1012.1 hPa SSW 1.6 km/h 25.7 km/h 97 % 0.5 mm 0 W/m2
01:10 18.5 °C 18.0 °C 1012.1 hPa SW 12.9 km/h 25.7 km/h 97 % 0.5 mm 0 W/m2
01:15 18.5 °C 18.0 °C 1012.1 hPa South 16.1 km/h 22.5 km/h 97 % 0.5 mm 0 W/m2
01:20 18.5 °C 18.0 °C 1012.1 hPa WSW 11.3 km/h 22.5 km/h 97 % 0.5 mm 0 W/m2
01:25 18.6 °C 18.1 °C 1012.1 hPa WSW 17.7 km/h 22.5 km/h 97 % 0.3 mm 0 W/m2
01:30 18.5 °C 18.0 °C 1012.1 hPa Calm   24.1 km/h 97 % 0.3 mm 0 W/m2
01:35 18.4 °C 18.0 °C 1012.1 hPa West 22.5 km/h 27.4 km/h 97 % 0.3 mm 0 W/m2
01:40 18.4 °C 17.9 °C 1012.1 hPa WSW 9.7 km/h 27.4 km/h 97 % 0.3 mm 0 W/m2
01:45 18.3 °C 17.8 °C 1011.7 hPa WSW 27.4 km/h 27.4 km/h 97 % 0.3 mm 0 W/m2
01:50 18.3 °C 17.8 °C 1011.7 hPa West 16.1 km/h 27.4 km/h 97 % 0.3 mm 0 W/m2
01:55 18.3 °C 17.8 °C 1011.7 hPa SW 12.9 km/h 27.4 km/h 97 % 0.3 mm 0 W/m2
02:00 18.3 °C 17.8 °C 1011.7 hPa WNW 9.7 km/h 27.4 km/h 97 % 0.3 mm 0 W/m2
02:05 18.3 °C 17.8 °C 1011.7 hPa SW 6.4 km/h 27.4 km/h 97 % 0.0 mm 0 W/m2
02:10 18.3 °C 17.8 °C 1011.7 hPa SW 14.5 km/h 22.5 km/h 97 % 0.0 mm 0 W/m2
02:15 18.3 °C 17.8 °C 1011.7 hPa WNW 19.3 km/h 25.7 km/h 97 % 0.0 mm 0 W/m2
02:20 18.3 °C 17.8 °C 1011.7 hPa WSW 3.2 km/h 25.7 km/h 97 % 0.0 mm 0 W/m2
02:25 18.3 °C 17.8 °C 1011.7 hPa SW 20.9 km/h 22.5 km/h 97 % 0.3 mm 0 W/m2
02:30 18.3 °C 17.8 °C 1011.7 hPa West 9.7 km/h 30.6 km/h 97 % 0.3 mm 0 W/m2
02:35 18.3 °C 17.8 °C 1011.7 hPa SW 6.4 km/h 30.6 km/h 97 % 0.3 mm 0 W/m2
02:40 18.3 °C 17.8 °C 1011.7 hPa WNW 12.9 km/h 20.9 km/h 97 % 0.3 mm 0 W/m2
02:45 18.4 °C 17.9 °C 1011.7 hPa WSW 11.3 km/h 22.5 km/h 97 % 0.3 mm 0 W/m2
02:50 18.4 °C 17.9 °C 1011.4 hPa WNW 19.3 km/h 22.5 km/h 97 % 0.3 mm 0 W/m2
02:55 18.4 °C 17.9 °C 1011.7 hPa WNW 11.3 km/h 20.9 km/h 97 % 0.3 mm 0 W/m2
03:00 18.4 °C 17.9 °C 1011.7 hPa SW 16.1 km/h 29.0 km/h 97 % 0.3 mm 0 W/m2
03:05 18.3 °C 17.8 °C 1011.7 hPa West 22.5 km/h 29.0 km/h 97 % 0.3 mm 0 W/m2
03:10 18.3 °C 17.8 °C 1011.7 hPa WNW 9.7 km/h 24.1 km/h 97 % 0.3 mm 0 W/m2
03:15 18.3 °C 17.8 °C 1011.4 hPa WSW 12.9 km/h 27.4 km/h 97 % 0.5 mm 0 W/m2
03:20 18.3 °C 17.8 °C 1011.4 hPa WSW 8.0 km/h 27.4 km/h 97 % 0.5 mm 0 W/m2
03:25 18.3 °C 17.8 °C 1011.4 hPa WSW 12.9 km/h 19.3 km/h 97 % 0.3 mm 0 W/m2
03:30 18.3 °C 17.8 °C 1011.4 hPa WNW 8.0 km/h 19.3 km/h 97 % 0.3 mm 0 W/m2
03:35 18.2 °C 17.7 °C 1011.4 hPa West 4.8 km/h 22.5 km/h 97 % 0.3 mm 0 W/m2
03:40 18.2 °C 17.7 °C 1011.4 hPa WSW 20.9 km/h 24.1 km/h 97 % 0.3 mm 0 W/m2
03:45 18.2 °C 17.7 °C 1011.4 hPa West 4.8 km/h 24.1 km/h 97 % 0.3 mm 0 W/m2
03:50 18.2 °C 17.7 °C 1011.4 hPa West 19.3 km/h 24.1 km/h 97 % 0.3 mm 0 W/m2
03:55 18.2 °C 17.7 °C 1011.4 hPa WNW 12.9 km/h 22.5 km/h 97 % 0.3 mm 0 W/m2
04:00 18.2 °C 17.7 °C 1011.4 hPa WSW 12.9 km/h 19.3 km/h 97 % 0.3 mm 0 W/m2
04:05 18.2 °C 17.7 °C 1011.4 hPa WSW 9.7 km/h 27.4 km/h 97 % 0.3 mm 0 W/m2
04:10 18.0 °C 17.5 °C 1011.4 hPa West 22.5 km/h 37.0 km/h 97 % 0.3 mm 0 W/m2
04:15 17.6 °C 17.0 °C 1011.4 hPa West 27.4 km/h 37.0 km/h 96 % 0.0 mm 0 W/m2
04:20 17.4 °C 17.0 °C 1011.4 hPa West 22.5 km/h 30.6 km/h 97 % 0.3 mm 0 W/m2
04:25 17.4 °C 16.9 °C 1011.4 hPa West 12.9 km/h 30.6 km/h 97 % 0.3 mm 0 W/m2
04:30 17.4 °C 17.0 °C 1011.4 hPa West 16.1 km/h 27.4 km/h 97 % 0.3 mm 0 W/m2
04:35 17.5 °C 17.0 °C 1011.7 hPa West 11.3 km/h 25.7 km/h 97 % 0.3 mm 0 W/m2
04:40 17.3 °C 16.8 °C 1011.4 hPa West 12.9 km/h 25.7 km/h 97 % 0.3 mm 0 W/m2
04:45 17.2 °C 16.7 °C 1011.4 hPa WNW 12.9 km/h 29.0 km/h 97 % 0.3 mm 0 W/m2
04:50 17.1 °C 16.6 °C 1011.7 hPa WNW 8.0 km/h 29.0 km/h 97 % 0.3 mm 0 W/m2
04:55 17.1 °C 16.6 °C 1011.7 hPa WSW 9.7 km/h 25.7 km/h 97 % 0.3 mm 0 W/m2
05:00 17.1 °C 16.6 °C 1011.7 hPa NW 12.9 km/h 27.4 km/h 97 % 0.3 mm 0 W/m2
05:05 17.1 °C 16.6 °C 1011.7 hPa WNW 4.8 km/h 27.4 km/h 97 % 0.3 mm 0 W/m2
05:10 17.1 °C 16.6 °C 1011.7 hPa WSW 9.7 km/h 27.4 km/h 97 % 0.3 mm 0 W/m2
05:15 17.1 °C 16.6 °C 1011.7 hPa WSW 11.3 km/h 22.5 km/h 97 % 0.3 mm 0 W/m2
05:20 17.2 °C 16.7 °C 1011.7 hPa WNW 6.4 km/h 25.7 km/h 97 % 0.0 mm 0 W/m2
05:25 17.2 °C 16.7 °C 1011.7 hPa West 4.8 km/h 25.7 km/h 97 % 0.0 mm 0 W/m2
05:30 17.3 °C 16.8 °C 1011.7 hPa NNW 11.3 km/h 20.9 km/h 97 % 0.0 mm 0 W/m2
05:35 17.3 °C 16.8 °C 1011.7 hPa WNW 9.7 km/h 24.1 km/h 97 % 0.0 mm 0 W/m2
05:40 17.3 °C 16.9 °C 1011.7 hPa WNW 6.4 km/h 24.1 km/h 97 % 0.0 mm 0 W/m2
05:45 17.3 °C 16.8 °C 1011.7 hPa West 6.4 km/h 22.5 km/h 97 % 0.0 mm 0 W/m2
05:50 17.0 °C 16.4 °C 1012.1 hPa West 9.7 km/h 25.7 km/h 96 % 0.3 mm 0 W/m2
05:55 16.8 °C 16.4 °C 1012.1 hPa West 8.0 km/h 25.7 km/h 97 % 0.3 mm 0 W/m2
06:00 16.7 °C 16.2 °C 1012.1 hPa WSW 9.7 km/h 25.7 km/h 97 % 0.3 mm 0 W/m2
06:05 16.8 °C 16.4 °C 1012.1 hPa WNW 8.0 km/h 22.5 km/h 97 % 0.3 mm 0 W/m2
06:10 16.8 °C 16.3 °C 1012.1 hPa WNW 12.9 km/h 25.7 km/h 97 % 0.3 mm 0 W/m2
06:15 16.6 °C 16.0 °C 1012.4 hPa NW 11.3 km/h 25.7 km/h 96 % 0.5 mm 0 W/m2
06:20 16.4 °C 16.0 °C 1012.4 hPa WNW 12.9 km/h 24.1 km/h 97 % 0.5 mm 0 W/m2
06:25 16.4 °C 15.9 °C 1012.4 hPa West 3.2 km/h 16.1 km/h 97 % 0.5 mm 0 W/m2
06:30 16.4 °C 15.9 °C 1012.4 hPa NW 9.7 km/h 19.3 km/h 97 % 0.5 mm 0 W/m2
06:35 16.3 °C 15.9 °C 1012.4 hPa WNW 12.9 km/h 20.9 km/h 97 % 0.5 mm 7 W/m2
06:40 16.3 °C 15.9 °C 1012.4 hPa NW 9.7 km/h 20.9 km/h 97 % 0.5 mm 11 W/m2
06:45 16.4 °C 16.0 °C 1012.4 hPa WNW 4.8 km/h 19.3 km/h 97 % 0.5 mm 11 W/m2
06:50 16.5 °C 16.0 °C 1012.4 hPa West 4.8 km/h 17.7 km/h 97 % 0.3 mm 19 W/m2
06:55 16.5 °C 16.0 °C 1012.8 hPa West 4.8 km/h 17.7 km/h 97 % 0.3 mm 21 W/m2
07:00 16.6 °C 16.1 °C 1012.8 hPa West 12.9 km/h 20.9 km/h 97 % 0.3 mm 19 W/m2
07:05 16.7 °C 16.2 °C 1012.8 hPa WSW 8.0 km/h 20.9 km/h 97 % 0.3 mm 26 W/m2
07:10 16.7 °C 16.2 °C 1012.8 hPa West 11.3 km/h 19.3 km/h 97 % 0.3 mm 21 W/m2
07:15 16.8 °C 16.1 °C 1012.8 hPa West 6.4 km/h 27.4 km/h 96 % 0.0 mm 26 W/m2
07:25 16.8 °C 16.2 °C 1013.1 hPa West 4.8 km/h 22.5 km/h 96 % 0.0 mm 49 W/m2
07:30 16.9 °C 16.2 °C 1013.1 hPa NW 6.4 km/h 24.1 km/h 96 % 0.0 mm 37 W/m2
07:35 16.8 °C 16.2 °C 1013.4 hPa West 4.8 km/h 27.4 km/h 96 % 0.0 mm 47 W/m2
07:40 16.8 °C 16.1 °C 1013.1 hPa NW 17.7 km/h 27.4 km/h 96 % 0.0 mm 72 W/m2
07:45 16.7 °C 15.9 °C 1013.1 hPa West 8.0 km/h 22.5 km/h 95 % 0.0 mm 69 W/m2
07:50 16.6 °C 15.8 °C 1013.4 hPa WNW 9.7 km/h 22.5 km/h 95 % 0.0 mm 49 W/m2
07:55 16.8 °C 16.0 °C 1013.4 hPa West 3.2 km/h 22.5 km/h 95 % 0.0 mm 70 W/m2
08:00 16.8 °C 16.0 °C 1013.4 hPa WNW 19.3 km/h 22.5 km/h 95 % 0.0 mm 70 W/m2
08:05 16.9 °C 16.1 °C 1013.4 hPa West 11.3 km/h 24.1 km/h 95 % 0.0 mm 88 W/m2
08:10 17.1 °C 16.3 °C 1013.4 hPa West 11.3 km/h 24.1 km/h 95 % 0.0 mm 100 W/m2
08:15 17.3 °C 16.5 °C 1013.8 hPa WNW 8.0 km/h 22.5 km/h 95 % 0.0 mm 107 W/m2
08:20 17.4 °C 16.6 °C 1013.8 hPa WNW 9.7 km/h 22.5 km/h 95 % 0.0 mm 130 W/m2
08:25 17.6 °C 16.8 °C 1013.8 hPa WSW 14.5 km/h 19.3 km/h 95 % 0.0 mm 135 W/m2
08:30 17.7 °C 16.7 °C 1013.8 hPa NW 9.7 km/h 19.3 km/h 94 % 0.0 mm 74 W/m2
08:35 17.6 °C 16.6 °C 1013.8 hPa West 4.8 km/h 22.5 km/h 94 % 0.0 mm 49 W/m2
08:40 17.4 °C 16.4 °C 1014.1 hPa WNW 6.4 km/h 24.1 km/h 94 % 0.0 mm 102 W/m2
08:45 17.2 °C 16.2 °C 1014.1 hPa WNW 6.4 km/h 24.1 km/h 94 % 0.0 mm 125 W/m2
08:50 17.3 °C 16.4 °C 1014.1 hPa Calm   20.9 km/h 94 % 0.0 mm 130 W/m2
08:55 17.3 °C 16.4 °C 1014.1 hPa NW 8.0 km/h 17.7 km/h 94 % 0.0 mm 506 W/m2
09:00 17.7 °C 16.7 °C 1014.1 hPa WNW 4.8 km/h 17.7 km/h 94 % 0.0 mm 139 W/m2
09:05 17.8 °C 16.9 °C 1014.1 hPa WNW 6.4 km/h 16.1 km/h 94 % 0.0 mm 192 W/m2
09:10 17.9 °C 16.8 °C 1014.1 hPa WNW 8.0 km/h 14.5 km/h 93 % 0.0 mm 162 W/m2
09:15 18.1 °C 17.0 °C 1014.4 hPa West 1.6 km/h 19.3 km/h 93 % 0.0 mm 255 W/m2
09:20 18.2 °C 16.7 °C 1014.4 hPa West 12.9 km/h 20.9 km/h 91 % 0.0 mm 144 W/m2
09:25 18.4 °C 16.9 °C 1014.4 hPa West 14.5 km/h 20.9 km/h 91 % 0.0 mm 137 W/m2
09:30 18.2 °C 16.7 °C 1014.4 hPa WNW 17.7 km/h 22.5 km/h 91 % 0.0 mm 155 W/m2
09:35 18.1 °C 16.4 °C 1014.4 hPa West 12.9 km/h 22.5 km/h 90 % 0.0 mm 149 W/m2
09:40 18.1 °C 16.6 °C 1014.8 hPa West 3.2 km/h 22.5 km/h 91 % 0.0 mm 181 W/m2
09:45 18.2 °C 16.7 °C 1014.8 hPa West 8.0 km/h 24.1 km/h 91 % 0.0 mm 171 W/m2
09:50 18.4 °C 16.8 °C 1014.8 hPa WNW 12.9 km/h 24.1 km/h 90 % 0.0 mm 174 W/m2
09:55 18.3 °C 16.4 °C 1014.8 hPa NW 14.5 km/h 24.1 km/h 89 % 0.0 mm 251 W/m2
10:00 18.6 °C 16.9 °C 1015.1 hPa West 16.1 km/h 24.1 km/h 90 % 0.0 mm 193 W/m2
10:10 18.9 °C 16.9 °C 1015.1 hPa West 9.7 km/h 20.9 km/h 88 % 0.0 mm 209 W/m2
10:15 18.7 °C 16.5 °C 1015.1 hPa WNW 14.5 km/h 25.7 km/h 87 % 0.0 mm 246 W/m2
10:20 18.8 °C 17.0 °C 1015.1 hPa WSW 3.2 km/h 25.7 km/h 89 % 0.0 mm 174 W/m2
10:25 19.1 °C 16.9 °C 1015.1 hPa WNW 16.1 km/h 25.7 km/h 87 % 0.0 mm 367 W/m2
10:30 19.3 °C 17.1 °C 1015.1 hPa WNW 12.9 km/h 25.7 km/h 87 % 0.0 mm 345 W/m2
10:35 19.2 °C 16.6 °C 1015.1 hPa West 9.7 km/h 27.4 km/h 85 % 0.0 mm 292 W/m2
10:40 18.9 °C 16.7 °C 1015.1 hPa WNW 9.7 km/h 27.4 km/h 87 % 0.0 mm 174 W/m2
10:45 18.6 °C 16.6 °C 1015.5 hPa NW 11.3 km/h 24.1 km/h 88 % 0.0 mm 243 W/m2
10:50 18.8 °C 16.7 °C 1015.5 hPa West 16.1 km/h 24.1 km/h 88 % 0.0 mm 360 W/m2
10:55 19.1 °C 16.8 °C 1015.5 hPa WNW 19.3 km/h 25.7 km/h 87 % 0.0 mm 432 W/m2
11:00 19.3 °C 16.9 °C 1015.5 hPa WSW 6.4 km/h 27.4 km/h 86 % 0.0 mm 478 W/m2
11:05 19.5 °C 16.9 °C 1015.8 hPa NW 19.3 km/h 27.4 km/h 85 % 0.0 mm 163 W/m2
11:10 19.2 °C 16.8 °C 1015.8 hPa WNW 16.1 km/h 25.7 km/h 86 % 0.0 mm 257 W/m2
11:15 18.8 °C 16.2 °C 1015.8 hPa NW 16.1 km/h 25.7 km/h 85 % 0.0 mm 257 W/m2
11:20 19.4 °C 17.0 °C 1015.8 hPa West 16.1 km/h 24.1 km/h 86 % 0.0 mm 357 W/m2
11:25 19.9 °C 17.0 °C 1015.8 hPa WNW 9.7 km/h 19.3 km/h 83 % 0.0 mm 392 W/m2
11:30 19.9 °C 16.5 °C 1015.8 hPa WNW 9.7 km/h 27.4 km/h 81 % 0.0 mm 473 W/m2
11:35 19.8 °C 16.6 °C 1015.8 hPa West 14.5 km/h 27.4 km/h 82 % 0.0 mm 248 W/m2
11:40 19.4 °C 16.5 °C 1015.8 hPa WNW 12.9 km/h 27.4 km/h 83 % 0.0 mm 253 W/m2
11:45 19.2 °C 16.3 °C 1015.8 hPa WSW 8.0 km/h 30.6 km/h 83 % 0.0 mm 225 W/m2
11:50 19.1 °C 16.3 °C 1016.1 hPa WNW 4.8 km/h 30.6 km/h 84 % 0.0 mm 163 W/m2
11:55 18.9 °C 16.5 °C 1016.1 hPa West 17.7 km/h 19.3 km/h 86 % 0.0 mm 250 W/m2
12:00 19.1 °C 16.9 °C 1016.1 hPa NW 6.4 km/h 24.1 km/h 87 % 0.0 mm 304 W/m2
12:05 19.3 °C 16.5 °C 1016.1 hPa West 9.7 km/h 24.1 km/h 84 % 0.0 mm 373 W/m2
12:10 20.2 °C 17.2 °C 1016.1 hPa WSW 14.5 km/h 24.1 km/h 83 % 0.0 mm 868 W/m2
12:15 20.1 °C 17.1 °C 1016.1 hPa WSW 17.7 km/h 24.1 km/h 83 % 0.0 mm 374 W/m2
12:20 19.6 °C 16.6 °C 1016.5 hPa NW 14.5 km/h 24.1 km/h 83 % 0.0 mm 290 W/m2
12:25 19.2 °C 16.6 °C 1016.5 hPa West 4.8 km/h 24.1 km/h 85 % 0.0 mm 204 W/m2
12:30 19.1 °C 16.5 °C 1016.5 hPa West 12.9 km/h 24.1 km/h 85 % 0.0 mm 178 W/m2
12:35 18.9 °C 16.4 °C 1016.5 hPa WSW 19.3 km/h 24.1 km/h 85 % 0.0 mm 139 W/m2
12:40 18.7 °C 16.3 °C 1016.5 hPa West 8.0 km/h 25.7 km/h 86 % 0.0 mm 183 W/m2
12:45 18.7 °C 16.7 °C 1016.8 hPa West 17.7 km/h 25.7 km/h 88 % 0.0 mm 218 W/m2
12:50 19.0 °C 17.0 °C 1016.8 hPa West 3.2 km/h 25.7 km/h 88 % 0.0 mm 388 W/m2
12:55 19.4 °C 17.2 °C 1016.8 hPa West 17.7 km/h 22.5 km/h 87 % 0.0 mm 265 W/m2
13:00 19.2 °C 16.9 °C 1016.8 hPa WSW 16.1 km/h 25.7 km/h 87 % 0.0 mm 323 W/m2
13:05 19.3 °C 17.1 °C 1016.8 hPa West 14.5 km/h 25.7 km/h 87 % 0.0 mm 306 W/m2
13:10 19.2 °C 16.8 °C 1016.8 hPa WSW 19.3 km/h 24.1 km/h 86 % 0.0 mm 318 W/m2
13:15 19.3 °C 16.9 °C 1017.2 hPa WNW 3.2 km/h 24.1 km/h 86 % 0.0 mm 717 W/m2
13:20 19.9 °C 17.2 °C 1016.8 hPa West 9.7 km/h 24.1 km/h 84 % 0.0 mm 543 W/m2
13:25 20.3 °C 17.2 °C 1017.2 hPa West 24.1 km/h 24.1 km/h 82 % 0.0 mm 482 W/m2
13:30 20.1 °C 17.1 °C 1017.2 hPa WNW 14.5 km/h 24.1 km/h 83 % 0.0 mm 364 W/m2
13:35 20.2 °C 17.2 °C 1017.2 hPa WSW 4.8 km/h 24.1 km/h 83 % 0.0 mm 529 W/m2
13:40 20.6 °C 17.2 °C 1017.2 hPa West 4.8 km/h 22.5 km/h 81 % 0.0 mm 608 W/m2
13:45 20.8 °C 17.0 °C 1017.5 hPa West 4.8 km/h 25.7 km/h 79 % 0.0 mm 557 W/m2
13:50 20.4 °C 16.9 °C 1017.5 hPa West 16.1 km/h 25.7 km/h 80 % 0.0 mm 578 W/m2
13:55 20.6 °C 17.0 °C 1017.5 hPa West 14.5 km/h 22.5 km/h 80 % 0.0 mm 418 W/m2
14:00 20.6 °C 17.2 °C 1017.5 hPa West 11.3 km/h 22.5 km/h 81 % 0.0 mm 561 W/m2
14:05 20.6 °C 17.2 °C 1017.5 hPa West 16.1 km/h 24.1 km/h 81 % 0.0 mm 548 W/m2
14:10 20.6 °C 17.0 °C 1017.5 hPa West 11.3 km/h 24.1 km/h 80 % 0.0 mm 332 W/m2
14:15 20.4 °C 17.2 °C 1017.5 hPa WNW 14.5 km/h 25.7 km/h 82 % 0.0 mm 490 W/m2
14:20 21.4 °C 17.6 °C 1017.5 hPa West 6.4 km/h 25.7 km/h 79 % 0.0 mm 570 W/m2
14:25 21.6 °C 17.1 °C 1017.5 hPa WNW 8.0 km/h 27.4 km/h 76 % 0.0 mm 554 W/m2
14:30 21.7 °C 17.3 °C 1017.5 hPa West 8.0 km/h 27.4 km/h 76 % 0.0 mm 693 W/m2
14:35 20.8 °C 16.2 °C 1017.5 hPa West 16.1 km/h 27.4 km/h 75 % 0.0 mm 555 W/m2
14:40 21.0 °C 16.8 °C 1017.5 hPa West 16.1 km/h 29.0 km/h 77 % 0.0 mm 605 W/m2
14:45 21.4 °C 16.8 °C 1017.8 hPa West 11.3 km/h 29.0 km/h 75 % 0.0 mm 659 W/m2
14:50 21.2 °C 16.8 °C 1017.8 hPa West 24.1 km/h 29.0 km/h 76 % 0.0 mm 642 W/m2
14:55 21.2 °C 17.2 °C 1017.8 hPa West 3.2 km/h 29.0 km/h 78 % 0.0 mm 673 W/m2
15:00 21.3 °C 16.9 °C 1017.8 hPa West 12.9 km/h 27.4 km/h 76 % 0.0 mm 795 W/m2
15:05 21.3 °C 16.9 °C 1017.8 hPa West 9.7 km/h 27.4 km/h 76 % 0.0 mm 745 W/m2
15:10 21.4 °C 17.0 °C 1017.8 hPa WNW 12.9 km/h 25.7 km/h 76 % 0.0 mm 1100 W/m2
15:15 21.4 °C 16.8 °C 1018.2 hPa WNW 12.9 km/h 25.7 km/h 75 % 0.0 mm 942 W/m2
15:20 21.5 °C 16.9 °C 1018.2 hPa WSW 20.9 km/h 24.1 km/h 75 % 0.0 mm 350 W/m2
15:25 21.8 °C 17.0 °C 1018.2 hPa WSW 17.7 km/h 22.5 km/h 74 % 0.0 mm 1136 W/m2
15:30 22.0 °C 17.4 °C 1018.2 hPa West 11.3 km/h 25.7 km/h 75 % 0.0 mm 1048 W/m2
15:35 22.1 °C 17.3 °C 1018.2 hPa WNW 6.4 km/h 25.7 km/h 74 % 0.0 mm 1011 W/m2
15:40 22.5 °C 17.4 °C 1018.2 hPa NW 11.3 km/h 19.3 km/h 73 % 0.0 mm 568 W/m2
15:45 21.7 °C 16.8 °C 1018.2 hPa West 24.1 km/h 24.1 km/h 74 % 0.0 mm 1093 W/m2
15:50 21.7 °C 17.1 °C 1018.2 hPa WNW 11.3 km/h 25.7 km/h 75 % 0.0 mm 526 W/m2
15:55 21.6 °C 16.9 °C 1018.2 hPa WNW 14.5 km/h 25.7 km/h 75 % 0.0 mm 475 W/m2
16:00 21.1 °C 16.7 °C 1018.5 hPa WNW 4.8 km/h 24.1 km/h 76 % 0.0 mm 411 W/m2
16:05 20.9 °C 16.7 °C 1018.5 hPa SW 9.7 km/h 24.1 km/h 77 % 0.0 mm 443 W/m2
16:10 20.9 °C 16.5 °C 1018.5 hPa WNW 14.5 km/h 22.5 km/h 76 % 0.0 mm 411 W/m2
16:15 20.7 °C 16.7 °C 1018.8 hPa West 6.4 km/h 24.1 km/h 78 % 0.0 mm 664 W/m2
16:20 21.3 °C 16.9 °C 1018.8 hPa WNW 14.5 km/h 24.1 km/h 76 % 0.0 mm 719 W/m2
16:25 21.2 °C 16.6 °C 1018.8 hPa West 11.3 km/h 22.5 km/h 75 % 0.0 mm 482 W/m2
16:30 20.4 °C 16.3 °C 1018.8 hPa WSW 12.9 km/h 25.7 km/h 77 % 0.0 mm 420 W/m2
16:35 20.8 °C 17.1 °C 1018.8 hPa WNW 14.5 km/h 25.7 km/h 79 % 0.0 mm 582 W/m2
16:40 20.8 °C 16.9 °C 1018.8 hPa West 9.7 km/h 24.1 km/h 78 % 0.0 mm 450 W/m2
16:45 20.8 °C 16.8 °C 1018.8 hPa WSW 19.3 km/h 24.1 km/h 78 % 0.0 mm 494 W/m2
16:50 20.8 °C 17.1 °C 1018.8 hPa WNW 4.8 km/h 27.4 km/h 79 % 0.0 mm 454 W/m2
16:55 20.8 °C 16.8 °C 1018.8 hPa WNW 4.8 km/h 27.4 km/h 78 % 0.0 mm 408 W/m2
17:00 20.7 °C 16.7 °C 1018.8 hPa WNW 20.9 km/h 25.7 km/h 78 % 0.0 mm 448 W/m2
17:05 20.3 °C 16.3 °C 1018.8 hPa NW 14.5 km/h 27.4 km/h 78 % 0.0 mm 492 W/m2
17:10 21.2 °C 17.2 °C 1019.2 hPa West 9.7 km/h 27.4 km/h 78 % 0.0 mm 615 W/m2
17:15 21.6 °C 17.1 °C 1019.2 hPa WSW 6.4 km/h 19.3 km/h 76 % 0.0 mm 548 W/m2
17:20 21.6 °C 16.8 °C 1019.2 hPa SW 9.7 km/h 20.9 km/h 74 % 0.0 mm 524 W/m2
17:25 20.8 °C 16.9 °C 1019.2 hPa SW 8.0 km/h 29.0 km/h 78 % 0.0 mm 424 W/m2
17:30 20.7 °C 16.7 °C 1019.2 hPa WNW 11.3 km/h 29.0 km/h 78 % 0.0 mm 513 W/m2
17:35 20.7 °C 16.7 °C 1019.2 hPa West 11.3 km/h 22.5 km/h 78 % 0.0 mm 341 W/m2
17:40 20.3 °C 16.7 °C 1019.2 hPa West 9.7 km/h 27.4 km/h 80 % 0.0 mm 318 W/m2
17:45 20.2 °C 16.6 °C 1019.2 hPa WSW 9.7 km/h 27.4 km/h 80 % 0.0 mm 230 W/m2
17:50 20.1 °C 16.7 °C 1019.2 hPa West 9.7 km/h 20.9 km/h 81 % 0.0 mm 234 W/m2
17:55 20.2 °C 16.8 °C 1019.2 hPa West 11.3 km/h 20.9 km/h 81 % 0.0 mm 573 W/m2
18:00 20.9 °C 17.2 °C 1019.2 hPa West 14.5 km/h 27.4 km/h 79 % 0.0 mm 548 W/m2
18:05 21.1 °C 17.1 °C 1019.2 hPa West 6.4 km/h 27.4 km/h 78 % 0.0 mm 559 W/m2
18:10 20.6 °C 16.6 °C 1019.5 hPa WNW 19.3 km/h 27.4 km/h 78 % 0.0 mm 278 W/m2
18:15 19.9 °C 16.2 °C 1019.2 hPa West 14.5 km/h 27.4 km/h 79 % 0.0 mm 188 W/m2
18:20 19.8 °C 16.7 °C 1019.2 hPa WNW 11.3 km/h 22.5 km/h 82 % 0.0 mm 501 W/m2
18:25 20.3 °C 17.0 °C 1019.2 hPa SW 11.3 km/h 29.0 km/h 81 % 0.0 mm 483 W/m2
18:30 20.7 °C 16.9 °C 1019.2 hPa WSW 12.9 km/h 29.0 km/h 79 % 0.0 mm 476 W/m2
18:35 20.9 °C 17.1 °C 1019.2 hPa West 9.7 km/h 19.3 km/h 79 % 0.0 mm 462 W/m2
18:40 20.5 °C 16.5 °C 1019.2 hPa WSW 14.5 km/h 24.1 km/h 78 % 0.0 mm 450 W/m2
18:45 20.3 °C 16.8 °C 1019.2 hPa West 17.7 km/h 24.1 km/h 80 % 0.0 mm 432 W/m2
18:50 20.3 °C 16.9 °C 1019.2 hPa WNW 9.7 km/h 22.5 km/h 81 % 0.0 mm 420 W/m2
18:55 20.7 °C 17.1 °C 1019.2 hPa WNW 4.8 km/h 22.5 km/h 80 % 0.0 mm 406 W/m2
19:00 20.8 °C 16.8 °C 1019.2 hPa WSW 11.3 km/h 20.9 km/h 78 % 0.0 mm 388 W/m2
19:05 20.6 °C 16.8 °C 1019.2 hPa WSW 4.8 km/h 20.9 km/h 79 % 0.0 mm 383 W/m2
19:10 20.5 °C 17.1 °C 1019.2 hPa WNW 6.4 km/h 22.5 km/h 81 % 0.0 mm 424 W/m2
19:15 21.0 °C 17.2 °C 1019.5 hPa West 8.0 km/h 22.5 km/h 79 % 0.0 mm 399 W/m2
19:20 20.7 °C 16.9 °C 1019.5 hPa SSW 1.6 km/h 14.5 km/h 79 % 0.0 mm 283 W/m2
19:25 20.6 °C 16.8 °C 1019.5 hPa West 12.9 km/h 24.1 km/h 79 % 0.0 mm 209 W/m2
19:30 19.8 °C 16.4 °C 1019.5 hPa West 8.0 km/h 24.1 km/h 81 % 0.0 mm 137 W/m2
19:35 19.7 °C 16.7 °C 1019.5 hPa West 4.8 km/h 19.3 km/h 83 % 0.0 mm 125 W/m2
19:40 19.6 °C 16.8 °C 1019.5 hPa WNW 4.8 km/h 16.1 km/h 84 % 0.0 mm 102 W/m2
19:45 19.3 °C 16.6 °C 1019.5 hPa West 8.0 km/h 19.3 km/h 84 % 0.0 mm 102 W/m2
19:50 19.2 °C 16.5 °C 1019.5 hPa NW 12.9 km/h 19.3 km/h 84 % 0.0 mm 109 W/m2
19:55 19.3 °C 16.5 °C 1019.5 hPa West 9.7 km/h 17.7 km/h 84 % 0.0 mm 111 W/m2
20:00 19.2 °C 16.6 °C 1019.5 hPa West 9.7 km/h 19.3 km/h 85 % 0.0 mm 113 W/m2
20:05 19.2 °C 16.6 °C 1019.5 hPa West 8.0 km/h 19.3 km/h 85 % 0.0 mm 97 W/m2
20:10 19.2 °C 16.6 °C 1019.5 hPa West 8.0 km/h 17.7 km/h 85 % 0.0 mm 83 W/m2
20:15 19.1 °C 16.5 °C 1019.5 hPa West 11.3 km/h 17.7 km/h 85 % 0.0 mm 83 W/m2
20:25 19.2 °C 16.6 °C 1019.9 hPa West 6.4 km/h 20.9 km/h 85 % 0.0 mm 125 W/m2
20:30 19.2 °C 16.6 °C 1019.9 hPa West 6.4 km/h 20.9 km/h 85 % 0.0 mm 98 W/m2
20:35 19.1 °C 16.5 °C 1019.9 hPa WNW 11.3 km/h 20.9 km/h 85 % 0.0 mm 95 W/m2
20:40 19.0 °C 16.6 °C 1019.9 hPa WNW 3.2 km/h 20.9 km/h 86 % 0.0 mm 58 W/m2
20:45 18.8 °C 16.3 °C 1019.9 hPa NW 8.0 km/h 16.1 km/h 85 % 0.0 mm 54 W/m2
20:50 18.8 °C 16.4 °C 1019.9 hPa WSW 4.8 km/h 17.7 km/h 86 % 0.0 mm 49 W/m2
20:55 18.7 °C 16.5 °C 1019.9 hPa West 4.8 km/h 17.7 km/h 87 % 0.0 mm 40 W/m2
21:00 18.6 °C 16.4 °C 1019.9 hPa WNW 4.8 km/h 16.1 km/h 87 % 0.0 mm 35 W/m2
21:05 18.6 °C 16.3 °C 1019.9 hPa West 3.2 km/h 16.1 km/h 87 % 0.0 mm 40 W/m2
21:10 18.6 °C 16.3 °C 1019.9 hPa NW 4.8 km/h 16.1 km/h 87 % 0.0 mm 33 W/m2
21:15 18.4 °C 16.2 °C 1019.9 hPa West 4.8 km/h 17.7 km/h 87 % 0.0 mm 25 W/m2
21:20 18.4 °C 16.4 °C 1019.9 hPa West 3.2 km/h 17.7 km/h 88 % 0.0 mm 21 W/m2
21:25 18.3 °C 16.3 °C 1019.9 hPa West 3.2 km/h 16.1 km/h 88 % 0.0 mm 19 W/m2
21:30 18.2 °C 16.2 °C 1019.9 hPa WNW 9.7 km/h 16.1 km/h 88 % 0.0 mm 16 W/m2
21:35 18.1 °C 16.3 °C 1019.9 hPa WSW 8.0 km/h 14.5 km/h 89 % 0.0 mm 14 W/m2
21:40 18.1 °C 16.2 °C 1019.9 hPa WNW 3.2 km/h 12.9 km/h 89 % 0.0 mm 11 W/m2
21:45 17.9 °C 16.1 °C 1020.2 hPa West 1.6 km/h 12.9 km/h 89 % 0.0 mm 7 W/m2
21:50 17.9 °C 16.3 °C 1020.2 hPa West 1.6 km/h 12.9 km/h 90 % 0.0 mm 5 W/m2
21:55 17.8 °C 16.2 °C 1020.2 hPa West 4.8 km/h 12.9 km/h 90 % 0.0 mm 5 W/m2
22:00 17.8 °C 16.1 °C 1020.2 hPa West 3.2 km/h 11.3 km/h 90 % 0.0 mm 0 W/m2
22:05 17.7 °C 16.2 °C 1020.2 hPa Calm   11.3 km/h 91 % 0.0 mm 0 W/m2
22:10 17.7 °C 16.2 °C 1020.2 hPa Calm   11.3 km/h 91 % 0.0 mm 0 W/m2
22:15 17.7 °C 16.2 °C 1020.2 hPa West 6.4 km/h 11.3 km/h 91 % 0.0 mm 0 W/m2
22:20 17.8 °C 16.3 °C 1020.5 hPa West 6.4 km/h 11.3 km/h 91 % 0.0 mm 0 W/m2
22:25 17.9 °C 16.4 °C 1020.5 hPa West 8.0 km/h 14.5 km/h 91 % 0.0 mm 0 W/m2
22:30 18.0 °C 16.5 °C 1020.5 hPa West 3.2 km/h 14.5 km/h 91 % 0.0 mm 0 W/m2
22:35 18.1 °C 16.6 °C 1020.5 hPa West 1.6 km/h 11.3 km/h 91 % 0.0 mm 0 W/m2
22:40 18.1 °C 16.4 °C 1020.5 hPa NW 8.0 km/h 11.3 km/h 90 % 0.0 mm 0 W/m2
22:45 18.1 °C 16.4 °C 1020.9 hPa WSW 6.4 km/h 11.3 km/h 90 % 0.0 mm 0 W/m2
22:50 18.2 °C 16.5 °C 1020.9 hPa West 4.8 km/h 11.3 km/h 90 % 0.0 mm 0 W/m2
22:55 18.1 °C 16.4 °C 1020.9 hPa WSW 4.8 km/h 11.3 km/h 90 % 0.0 mm 0 W/m2
23:00 18.1 °C 16.4 °C 1020.9 hPa West 8.0 km/h 9.7 km/h 90 % 0.0 mm 0 W/m2
23:05 18.1 °C 16.4 °C 1020.9 hPa SW 4.8 km/h 11.3 km/h 90 % 0.0 mm 0 W/m2
23:10 18.1 °C 16.6 °C 1020.9 hPa West 1.6 km/h 11.3 km/h 91 % 0.0 mm 0 W/m2
23:15 18.0 °C 16.5 °C 1020.9 hPa WSW 3.2 km/h 11.3 km/h 91 % 0.0 mm 0 W/m2
23:20 18.0 °C 16.5 °C 1020.9 hPa Calm   11.3 km/h 91 % 0.0 mm 0 W/m2
23:25 17.9 °C 16.4 °C 1020.9 hPa WSW 4.8 km/h 11.3 km/h 91 % 0.0 mm 0 W/m2
23:30 17.8 °C 16.3 °C 1020.9 hPa Calm   11.3 km/h 91 % 0.0 mm 0 W/m2
23:35 17.8 °C 16.3 °C 1020.9 hPa SW 1.6 km/h 8.0 km/h 91 % 0.0 mm 0 W/m2
23:40 17.8 °C 16.5 °C 1020.9 hPa WSW 3.2 km/h 12.9 km/h 92 % 0.0 mm 0 W/m2
23:45 17.8 °C 16.5 °C 1020.9 hPa SW 3.2 km/h 12.9 km/h 92 % 0.0 mm 0 W/m2
23:50 17.8 °C 16.5 °C 1020.9 hPa SW 4.8 km/h 11.3 km/h 92 % 0.0 mm 0 W/m2
23:55 17.8 °C 16.5 °C 1020.9 hPa WSW 4.8 km/h 9.7 km/h 92 % 0.0 mm 0 W/m2
Avec l'autorisation de Weather Underground - 1.75 mb